Co Bluffs, Iowa
Current Conditions -  °F | °C
As of 10:52 PM on Thursday 30 Oct 2014 (Local Time) from KOMA Reporting Station
Overcast Overcast  
Wind Chill: 36°   Ceiling: 2200
Heat Index: 45°   Visibility: 10mi
Dew Point: 35°   Wind: 25mph
Humidity: 68%   Direction: 350°N
Pressure: 30.35"   Gusts: 32mph
Location:  41.2617°N, 95.8608°W
Report Text: KOMA 310352Z 35022G28KT 10SM OVC022 07/02 A3035 RMK AO2 PK WND 35033/0320 SLP280 T00720017
Loading
Personal Weather Stations






























Interactive Weather Map
Tropical Storm Tracking
New forecast layout! Learn more

10-Day Weather Forecast

Advertisements
Track Severe Weather on mobile